Flight Track Log - Related Links

Times and Time Zones

All times are in EDT time to prevent confusion due to time zone crossing. See the RPA4886 flight status page for this flight to view local times or setup timezone preferences in your user account.

Time Position Orientation Groundspeed Altitude Reporting Facility
EDT Latitude Longitude Course Direction KTS MPH feet Rate Location/Type
Sat 09:42:26 AM 40.6500 -74.1833 258° West 166 191 1,500  Level New York TRACON
Sat 09:43:26 AM 40.6500 -74.2333 270° West 215 247 3,300 1,850 Climbing New York TRACON
Sat 09:44:00 AM 40.6290 -74.4830 260° West  Level FlightAware Approximate
Sat 09:44:26 AM 40.6833 -74.3167 298° West 221 254 5,200  Level New York TRACON
Sat 09:45:00 AM 40.6143 -74.5935 260° West  Level FlightAware Approximate
Sat 09:45:26 AM 40.7000 -74.3833 288° West 227 261 7,300  Level New York TRACON
Sat 09:46:00 AM 40.5994 -74.7039 258° West  Level FlightAware Approximate
Sat 09:46:26 AM 40.7333 -74.4667 298° West 227 261 9,300  Level New York TRACON
Sat 09:47:00 AM 40.5812 -74.8134 258° West  Level FlightAware Approximate
Sat 09:47:32 AM 40.7667 -74.5500 298° West 231 266 11,100  Level New York TRACON
Sat 09:48:43 AM 40.7778 -74.6322 280° West 239 275 12,000 419 Climbing New York Center
Sat 09:49:41 AM 40.7636 -74.7411 260° West 264 304 12,000  Level New York Center
Sat 09:50:43 AM 40.7439 -74.8303 254° West 282 325 12,000 500 Level New York Center
Sat 09:51:41 AM 40.6600 -74.8472 189° South 257 296 13,000 900 Climbing New York Center
Sat 09:52:43 AM 40.5917 -74.8950 208° Southwest 275 316 13,800 950 Climbing New York Center
Sat 09:53:41 AM 40.5675 -74.9864 251° West 265 305 14,900 1,119 Climbing New York Center
Sat 09:54:41 AM 40.5353 -75.0747 244° Southwest 275 316 16,000 1,140 Climbing New York Center
Sat 09:55:42 AM 40.4911 -75.1372 227° Southwest 270 311 17,200 1,190 Climbing New York Center
Sat 09:56:42 AM 40.4469 -75.2083 231° Southwest 264 304 18,400 1,200 Climbing New York Center
Sat 09:57:42 AM 40.4003 -75.2869 232° Southwest 257 296 19,600 1,041 Climbing New York Center
Sat 09:58:43 AM 40.3558 -75.3547 229° Southwest 252 290 20,500 793 Climbing New York Center
Sat 09:59:43 AM 40.3114 -75.4228 229° Southwest 252 290 21,200 712 Climbing New York Center
Sat 10:00:41 AM 40.2669 -75.4931 230° Southwest 252 290 21,900 605 Climbing New York Center
Sat 10:01:42 AM 40.2225 -75.5661 231° Southwest 252 290 22,400 595 Climbing New York Center
Sat 10:02:42 AM 40.1817 -75.6475 237° Southwest 263 303 23,100 756 Climbing New York Center
Sat 10:03:41 AM 40.1428 -75.7264 237° Southwest 263 303 23,900 446 Climbing New York Center
Sat 10:04:43 AM 40.0997 -75.8075 235° Southwest 268 308 24,000 49 Climbing New York Center
Sat 10:05:43 AM 40.0586 -75.8914 237° Southwest 274 315 24,000  Level New York Center
Sat 10:06:41 AM 40.0131 -75.9800 236° Southwest 284 327 24,000  Level New York Center
Sat 10:07:41 AM 39.9672 -76.0742 238° Southwest 292 336 24,000  Level New York Center
Sat 10:08:41 AM 39.9214 -76.1628 236° Southwest 299 344 24,000  Level New York Center
Sat 10:10:24 AM 39.8469 -76.3050 236° Southwest 295 339 24,000  Level Washington Center
Sat 10:11:21 AM 39.7983 -76.3964 235° Southwest 300 345 24,000  Level Washington Center
Sat 10:12:22 AM 39.7519 -76.4875 237° Southwest 300 345 24,000  Level Washington Center
Sat 10:13:22 AM 39.6969 -76.5839 233° Southwest 305 351 24,000  Level Washington Center
Sat 10:14:21 AM 39.6506 -76.6722 236° Southwest 305 351 24,000  Level Washington Center
Sat 10:15:22 AM 39.5997 -76.7578 232° Southwest 310 357 24,000  Level Washington Center
Sat 10:16:23 AM 39.5264 -76.8050 206° Southwest 303 349 24,000  Level Washington Center
Sat 10:17:24 AM 39.4467 -76.8386 198° South 303 349 24,000  Level Washington Center
Sat 10:18:21 AM 39.3614 -76.8292 175° South 303 349 24,000  Level Washington Center
Sat 10:19:23 AM 39.2761 -76.8169 174° South 303 349 24,000  Level Washington Center
Sat 10:20:24 AM 39.1908 -76.8075 175° South 310 357 24,000  Level Washington Center
Sat 10:21:22 AM 39.1053 -76.7981 175° South 310 357 24,000  Level Washington Center
Sat 10:22:22 AM 39.0200 -76.7858 174° South 310 357 24,000  Level Washington Center
Sat 10:23:23 AM 38.9367 -76.7739 174° South 310 357 24,000 -49 Level Washington Center
Sat 10:24:24 AM 38.8514 -76.7644 175° South 310 357 23,900 -559 Descending Washington Center
Sat 10:25:21 AM 38.7639 -76.7550 175° South 310 357 22,900 -908 Descending Washington Center
Sat 10:26:23 AM 38.6744 -76.7378 171° South 320 368 22,100 -492 Descending Washington Center
Sat 10:27:23 AM 38.5850 -76.7019 163° South 325 374 21,900 -595 Descending Washington Center
Sat 10:28:24 AM 38.4958 -76.6686 164° South 337 388 20,900 -1,041 Descending Washington Center
Sat 10:29:24 AM 38.4022 -76.6356 165° South 337 388 19,800 -1,169 Descending Washington Center
Sat 10:30:22 AM 38.3108 -76.6000 163° South 337 388 18,600 -1,169 Descending Washington Center
Sat 10:31:22 AM 38.2319 -76.5644 161° South 337 388 17,500 -1,140 Descending Washington Center
Sat 10:32:23 AM 38.1403 -76.5289 163° South 342 394 16,300 -793 Descending Washington Center
Sat 10:33:23 AM 38.0531 -76.4961 164° South 342 394 15,900 -763 Descending Washington Center
Sat 10:34:21 AM 37.9656 -76.4636 164° South 337 388 14,800 -1,213 Descending Washington Center
Sat 10:34:52 AM 37.9117 -76.4472 167° South 325 374 14,100 -1,102 Descending Washington Center
Sat 10:35:10 AM 37.8928 -76.4417 167° South 324 373 13,900 -911 Descending Washington Center
Sat 10:36:11 AM 37.8139 -76.4119 163° South 293 337 12,900 -1,033 Descending Washington Center
Sat 10:37:12 AM 37.7328 -76.3794 162° South 273 314 11,800 -1,140 Descending Washington Center
Sat 10:38:12 AM 37.6619 -76.3472 160° South 273 314 10,600 -857 Descending Washington Center
Sat 10:39:11 AM 37.5933 -76.3125 158° South 268 308 10,100 -773 Descending Washington Center
Sat 10:40:24 AM 37.5206 -76.2778 159° South 264 304 8,900 -1,513 Descending Washington Center
Sat 10:41:06 AM 37.4644 -76.2539 161° South 257 296 7,200 -1,869 Descending Washington Center
Sat 10:41:25 AM 37.4539 -76.2458 149° Southeast 264 304 7,000 -1,574 Descending Washington Center
Sat 10:42:07 AM 37.3978 -76.2219 161° South 243 280 5,600 -1,579 Descending Washington Center
Sat 10:42:22 AM 37.3894 -76.2139 142° Southeast 257 296 5,500 -1,082 Descending Washington Center
Sat 10:43:08 AM 37.3353 -76.1925 163° South 236 272 4,500 -1,082 Descending Washington Center
Sat 10:43:23 AM 37.3292 -76.1847 135° Southeast 246 283 4,400 -448 Descending Washington Center
Sat 10:44:15 AM 37.2708 -76.1608 162° South 243 280 4,000 -531 Descending Washington Center
Sat 10:45:16 AM 37.2000 -76.1342 163° South 241 277 3,400 -496 Descending Washington Center
Sat 10:46:16 AM 37.1397 -76.1025 157° South 239 275 3,000 -446 Descending Washington Center
Sat 10:47:17 AM 37.0750 -76.0944 174° South 230 265 2,500 -645 Descending Washington Center
Sat 10:48:17 AM 37.0125 -76.0992 183° South 219 252 1,700 -800 Descending Washington Center

Login

Don't have an account? Register now (free) for customized features, flight alerts, and more!